createdAt,value
2022-12-23T00:00:12.727Z,67.52
2022-12-23T00:01:17.394Z,67.49
2022-12-23T00:02:19.799Z,67.40
2022-12-23T00:03:23.656Z,67.49
2022-12-23T00:04:26.085Z,66.38
2022-12-23T00:05:35.756Z,66.35
2022-12-23T00:06:40.930Z,66.01
2022-12-23T00:07:45.016Z,66.16
2022-12-23T00:08:48.748Z,66.09
2022-12-23T00:09:51.057Z,65.80
2022-12-23T00:10:56.254Z,65.17
2022-12-23T00:12:16.875Z,65.02
2022-12-23T00:13:39.337Z,65.48
2022-12-23T00:15:00.165Z,65.77
2022-12-23T00:16:05.845Z,65.77
2022-12-23T00:17:21.652Z,65.64
2022-12-23T00:18:25.342Z,65.61
2022-12-23T00:19:28.759Z,65.15
2022-12-23T00:20:31.049Z,65.63
2022-12-23T00:21:36.044Z,64.80
2022-12-23T00:22:57.425Z,65.25
2022-12-23T00:24:00.778Z,65.89
2022-12-23T00:25:03.196Z,65.44
2022-12-23T00:26:07.424Z,64.99
2022-12-23T00:27:09.871Z,65.42
2022-12-23T00:28:15.223Z,66.13
2022-12-23T00:29:19.008Z,66.83
2022-12-23T00:30:22.287Z,67.14
2022-12-23T00:31:26.241Z,67.30
2022-12-23T00:32:28.682Z,67.84
2022-12-23T00:33:33.940Z,67.30
2022-12-23T00:34:36.474Z,67.13
2022-12-23T00:35:39.760Z,67.56
2022-12-23T00:36:43.097Z,67.69
2022-12-23T00:37:45.542Z,67.40
2022-12-23T00:39:06.967Z,66.99
2022-12-23T00:40:31.278Z,66.93
2022-12-23T00:41:52.122Z,66.69
2022-12-23T00:42:55.567Z,66.94
2022-12-23T00:43:58.341Z,66.86
2022-12-23T00:45:16.000Z,67.21
2022-12-23T00:46:18.547Z,67.73
2022-12-23T00:47:39.299Z,67.87
2022-12-23T00:49:00.381Z,67.29
2022-12-23T00:50:03.865Z,67.77
2022-12-23T00:51:06.460Z,67.34
2022-12-23T00:52:12.217Z,67.50
2022-12-23T00:53:14.573Z,67.37
2022-12-23T00:54:18.513Z,67.42
2022-12-23T00:55:21.211Z,67.42
2022-12-23T00:56:24.528Z,67.43
2022-12-23T00:57:27.895Z,67.24
2022-12-23T00:58:32.141Z,66.77
2022-12-23T00:59:36.085Z,66.63
2022-12-23T01:00:58.570Z,66.83
2022-12-23T01:02:19.460Z,66.83
2022-12-23T01:03:40.267Z,67.04
2022-12-23T01:05:16.011Z,66.63
2022-12-23T01:06:19.843Z,67.80
2022-12-23T01:07:22.379Z,68.10
2022-12-23T01:08:25.753Z,67.73
2022-12-23T01:09:28.347Z,67.46
2022-12-23T01:10:31.977Z,67.46
2022-12-23T01:11:34.363Z,67.82
2022-12-23T01:12:37.639Z,67.60
2022-12-23T01:13:40.405Z,67.96
2022-12-23T01:14:44.072Z,68.04
2022-12-23T01:15:47.854Z,67.86
2022-12-23T01:16:51.322Z,67.90
2022-12-23T01:17:53.771Z,68.08
2022-12-23T01:18:57.265Z,68.03
2022-12-23T01:19:59.569Z,67.71
2022-12-23T01:21:04.211Z,67.22
2022-12-23T01:22:06.714Z,67.59
2022-12-23T01:23:10.355Z,67.49
2022-12-23T01:24:12.942Z,67.30
2022-12-23T01:25:17.163Z,67.05
2022-12-23T01:26:19.542Z,66.66
2022-12-23T01:27:23.001Z,67.29
2022-12-23T01:28:25.909Z,67.39
2022-12-23T01:29:30.092Z,67.50
2022-12-23T01:30:32.609Z,67.66
2022-12-23T01:31:37.594Z,67.74
2022-12-23T01:32:39.995Z,67.87
2022-12-23T01:33:43.279Z,67.52
2022-12-23T01:34:45.667Z,67.50
2022-12-23T01:35:49.592Z,67.35
2022-12-23T01:36:52.052Z,67.75
2022-12-23T01:37:55.603Z,68.56
2022-12-23T01:38:58.081Z,68.06
2022-12-23T01:40:01.464Z,68.80
2022-12-23T01:41:03.937Z,68.55
2022-12-23T01:42:28.330Z,68.54
2022-12-23T01:43:48.048Z,68.21
2022-12-23T01:44:57.085Z,68.16
2022-12-23T01:46:00.600Z,68.01
2022-12-23T01:47:07.324Z,68.27
2022-12-23T01:48:13.735Z,68.15
2022-12-23T01:49:16.251Z,68.27
2022-12-23T01:50:24.671Z,68.36
2022-12-23T01:51:31.049Z,68.67
2022-12-23T01:52:38.020Z,68.25
2022-12-23T01:53:44.958Z,67.79
2022-12-23T01:54:47.435Z,67.36
2022-12-23T01:55:55.536Z,67.31
2022-12-23T01:56:58.744Z,66.97
2022-12-23T01:58:07.139Z,65.97
2022-12-23T01:59:35.018Z,66.20
2022-12-23T02:00:58.152Z,66.92
2022-12-23T02:02:19.601Z,66.29
2022-12-23T02:03:41.934Z,66.55
2022-12-23T02:04:45.478Z,66.64
2022-12-23T02:05:49.105Z,66.52
2022-12-23T02:07:10.641Z,66.28
2022-12-23T02:08:33.774Z,67.62
2022-12-23T02:09:39.208Z,67.64
2022-12-23T02:10:59.552Z,67.49
2022-12-23T02:12:40.911Z,68.12
2022-12-23T02:14:06.672Z,67.93
2022-12-23T02:15:46.570Z,68.53
2022-12-23T02:16:56.394Z,68.40
2022-12-23T02:18:08.995Z,68.47
2022-12-23T02:19:19.197Z,68.30
2022-12-23T02:20:46.558Z,67.63
2022-12-23T02:22:20.194Z,68.36
2022-12-23T02:23:47.667Z,68.29
2022-12-23T02:25:27.212Z,68.55
2022-12-23T02:27:02.291Z,69.41
2022-12-23T02:28:27.536Z,68.89
2022-12-23T02:29:58.918Z,69.13
2022-12-23T02:31:10.699Z,69.10
2022-12-23T02:32:20.915Z,68.62
2022-12-23T02:33:42.340Z,68.85
2022-12-23T02:34:52.895Z,68.88
2022-12-23T02:36:06.311Z,68.83
2022-12-23T02:37:19.022Z,69.03
2022-12-23T02:38:28.084Z,68.29
2022-12-23T02:39:42.649Z,68.72
2022-12-23T02:40:55.088Z,68.33
2022-12-23T02:42:05.994Z,67.91
2022-12-23T02:43:17.362Z,68.40
2022-12-23T02:44:27.562Z,68.04
2022-12-23T02:45:38.096Z,67.84
2022-12-23T02:46:47.796Z,68.76
2022-12-23T02:47:55.886Z,69.21
2022-12-23T02:49:06.224Z,69.35
2022-12-23T02:50:13.668Z,69.06
2022-12-23T02:51:18.097Z,68.52
2022-12-23T02:52:25.215Z,67.92
2022-12-23T02:53:33.524Z,68.33
2022-12-23T02:54:40.991Z,68.07
2022-12-23T02:55:46.733Z,68.71
2022-12-23T02:56:52.889Z,68.43
2022-12-23T02:57:59.054Z,68.46
2022-12-23T02:59:05.619Z,68.61
2022-12-23T03:00:10.495Z,68.53
2022-12-23T03:01:15.622Z,68.34
2022-12-23T03:02:21.147Z,68.47
2022-12-23T03:03:25.282Z,68.29
2022-12-23T03:04:28.618Z,67.13
2022-12-23T03:05:35.322Z,67.22
2022-12-23T03:06:41.815Z,67.68
2022-12-23T03:07:44.223Z,67.71
2022-12-23T03:08:48.760Z,68.38
2022-12-23T03:09:58.868Z,69.25
2022-12-23T03:11:07.093Z,68.93
2022-12-23T03:12:21.133Z,69.80
2022-12-23T03:13:33.184Z,70.07
2022-12-23T03:14:55.871Z,70.38
2022-12-23T03:16:12.139Z,69.66
2022-12-23T03:17:29.366Z,70.20
2022-12-23T03:18:40.655Z,69.81
2022-12-23T03:19:51.341Z,69.19
2022-12-23T03:20:59.499Z,69.02
2022-12-23T03:22:12.382Z,68.71
2022-12-23T03:23:22.047Z,68.59
2022-12-23T03:24:36.303Z,68.81
2022-12-23T03:25:46.408Z,68.57
2022-12-23T03:26:56.312Z,68.39
2022-12-23T03:28:03.428Z,68.29
2022-12-23T03:29:13.051Z,68.23
2022-12-23T03:30:19.228Z,68.55
2022-12-23T03:31:26.928Z,68.37
2022-12-23T03:32:36.971Z,68.51
2022-12-23T03:33:43.847Z,68.18
2022-12-23T03:34:48.661Z,68.69
2022-12-23T03:35:58.062Z,68.20
2022-12-23T03:37:05.604Z,67.54
2022-12-23T03:38:11.927Z,67.76
2022-12-23T03:39:17.690Z,68.00
2022-12-23T03:40:25.149Z,68.02
2022-12-23T03:41:31.928Z,67.91
2022-12-23T03:42:38.666Z,67.36
2022-12-23T03:43:50.415Z,67.25
2022-12-23T03:45:28.432Z,67.65
2022-12-23T03:46:24.515Z,67.35
2022-12-23T03:47:31.676Z,67.96
2022-12-23T03:48:40.415Z,68.15
2022-12-23T03:49:47.913Z,68.37
2022-12-23T03:50:54.343Z,67.60
2022-12-23T03:52:02.703Z,68.22
2022-12-23T03:53:12.310Z,68.59
2022-12-23T03:54:19.543Z,68.93
2022-12-23T03:55:28.173Z,68.45
2022-12-23T03:56:34.888Z,68.36
2022-12-23T03:57:43.269Z,68.47
2022-12-23T03:58:49.490Z,68.35
2022-12-23T03:59:53.553Z,68.18
2022-12-23T04:01:01.380Z,67.81
2022-12-23T04:02:09.932Z,68.27
2022-12-23T04:03:22.624Z,68.03
2022-12-23T04:04:34.270Z,68.22
2022-12-23T04:05:39.898Z,68.06
2022-12-23T04:06:50.209Z,67.64
2022-12-23T04:07:56.415Z,68.38
2022-12-23T04:09:01.145Z,68.13
2022-12-23T04:10:05.209Z,68.75
2022-12-23T04:11:09.309Z,68.29
2022-12-23T04:12:14.495Z,68.14
2022-12-23T04:13:18.198Z,68.31
2022-12-23T04:14:21.501Z,67.96
2022-12-23T04:15:27.372Z,67.90
2022-12-23T04:16:30.518Z,67.31
2022-12-23T04:17:34.744Z,67.43
2022-12-23T04:18:37.306Z,67.30
2022-12-23T04:19:42.318Z,67.39
2022-12-23T04:20:45.287Z,68.46
2022-12-23T04:21:48.594Z,69.32
2022-12-23T04:22:51.520Z,70.40
2022-12-23T04:23:55.358Z,69.92
2022-12-23T04:24:57.630Z,70.34
2022-12-23T04:26:00.974Z,70.25
2022-12-23T04:27:03.319Z,70.37
2022-12-23T04:28:06.974Z,70.44
2022-12-23T04:29:09.374Z,70.27
2022-12-23T04:30:14.541Z,70.76
2022-12-23T04:31:16.876Z,70.29
2022-12-23T04:32:20.361Z,70.19
2022-12-23T04:33:22.872Z,69.70
2022-12-23T04:34:26.323Z,69.76
2022-12-23T04:35:31.891Z,70.01
2022-12-23T04:36:35.288Z,70.14
2022-12-23T04:37:38.103Z,70.78
2022-12-23T04:38:41.688Z,70.31
2022-12-23T04:39:44.023Z,69.98
2022-12-23T04:40:48.113Z,69.63
2022-12-23T04:41:50.568Z,69.73
2022-12-23T04:42:53.950Z,69.88
2022-12-23T04:43:56.473Z,69.31
2022-12-23T04:45:00.311Z,69.51
2022-12-23T04:46:03.245Z,70.10
2022-12-23T04:47:06.767Z,69.36
2022-12-23T04:48:09.675Z,69.43
2022-12-23T04:49:13.131Z,69.08
2022-12-23T04:50:16.741Z,68.75
2022-12-23T04:51:21.792Z,68.76
2022-12-23T04:52:24.283Z,68.80
2022-12-23T04:53:27.706Z,68.80
2022-12-23T04:54:30.078Z,68.75
2022-12-23T04:55:33.555Z,68.60
2022-12-23T04:56:35.922Z,68.73
2022-12-23T04:57:39.169Z,68.41
2022-12-23T04:58:41.521Z,68.23
2022-12-23T04:59:45.113Z,68.09
2022-12-23T05:00:47.644Z,67.66
2022-12-23T05:01:51.281Z,68.41
2022-12-23T05:02:54.940Z,69.34
2022-12-23T05:03:57.407Z,68.80
2022-12-23T05:05:00.733Z,68.37
2022-12-23T05:06:03.124Z,68.95
2022-12-23T05:07:08.792Z,68.87
2022-12-23T05:08:11.176Z,68.76
2022-12-23T05:09:14.608Z,69.26
2022-12-23T05:10:17.077Z,69.53
2022-12-23T05:11:20.402Z,69.55
2022-12-23T05:12:22.729Z,70.03
2022-12-23T05:13:26.750Z,70.57
2022-12-23T05:14:29.089Z,69.96
2022-12-23T05:15:33.193Z,70.67
2022-12-23T05:16:35.567Z,70.97
2022-12-23T05:17:38.919Z,71.30
2022-12-23T05:18:41.302Z,71.13
2022-12-23T05:19:44.587Z,70.29
2022-12-23T05:20:47.112Z,70.70
2022-12-23T05:21:50.437Z,70.60
2022-12-23T05:22:54.199Z,69.88
2022-12-23T05:23:57.997Z,70.30
2022-12-23T05:25:00.197Z,70.73
2022-12-23T05:26:03.599Z,71.08
2022-12-23T05:27:05.919Z,71.40
2022-12-23T05:28:09.608Z,70.53
2022-12-23T05:29:11.902Z,70.01
2022-12-23T05:30:15.445Z,69.78
2022-12-23T05:31:17.967Z,70.13
2022-12-23T05:32:21.291Z,70.70
2022-12-23T05:33:23.700Z,71.22
2022-12-23T05:34:27.290Z,72.12
2022-12-23T05:35:29.977Z,71.12
2022-12-23T05:36:33.278Z,70.49
2022-12-23T05:37:35.556Z,69.82
2022-12-23T05:38:40.366Z,70.11
2022-12-23T05:39:42.980Z,69.83
2022-12-23T05:40:46.957Z,70.10
2022-12-23T05:41:49.563Z,69.68
2022-12-23T05:42:53.007Z,70.31
2022-12-23T05:43:55.244Z,69.99
2022-12-23T05:44:58.581Z,69.67
2022-12-23T05:46:00.900Z,69.08
2022-12-23T05:47:04.356Z,68.55
2022-12-23T05:48:07.616Z,68.05
2022-12-23T05:49:10.875Z,68.24
2022-12-23T05:50:13.447Z,67.79
2022-12-23T05:51:16.726Z,68.01
2022-12-23T05:52:19.076Z,68.48
2022-12-23T05:53:24.047Z,68.98
2022-12-23T05:54:27.946Z,68.89
2022-12-23T05:55:31.360Z,70.42
2022-12-23T05:56:34.081Z,70.42
2022-12-23T05:57:37.475Z,70.92
2022-12-23T05:58:39.737Z,70.94
2022-12-23T05:59:44.349Z,70.71
2022-12-23T06:00:46.929Z,70.80
2022-12-23T06:01:50.459Z,71.55
2022-12-23T06:02:54.258Z,71.24
2022-12-23T06:03:57.920Z,70.44
2022-12-23T06:05:00.369Z,70.10
2022-12-23T06:06:04.118Z,69.42
2022-12-23T06:07:06.502Z,68.73
2022-12-23T06:08:09.852Z,68.40
2022-12-23T06:09:12.368Z,68.63
2022-12-23T06:10:17.395Z,68.66
2022-12-23T06:11:19.785Z,69.45
2022-12-23T06:12:23.501Z,69.78
2022-12-23T06:13:26.219Z,70.21
2022-12-23T06:14:29.764Z,69.75
2022-12-23T06:15:32.395Z,69.45
2022-12-23T06:16:36.098Z,69.51
2022-12-23T06:17:38.567Z,70.21
2022-12-23T06:18:42.109Z,69.57
2022-12-23T06:19:44.456Z,69.03
2022-12-23T06:20:48.268Z,69.04
2022-12-23T06:21:50.704Z,69.18
2022-12-23T06:22:53.994Z,69.05
2022-12-23T06:23:56.231Z,68.61
2022-12-23T06:24:59.598Z,68.84
2022-12-23T06:26:04.068Z,69.12
2022-12-23T06:27:07.439Z,69.57
2022-12-23T06:28:09.740Z,69.58
2022-12-23T06:29:13.187Z,69.30
2022-12-23T06:30:15.878Z,69.45
2022-12-23T06:31:19.700Z,70.46
2022-12-23T06:32:22.022Z,71.04
2022-12-23T06:33:26.312Z,70.89
2022-12-23T06:34:29.278Z,70.75
2022-12-23T06:35:32.696Z,71.21
2022-12-23T06:36:35.041Z,70.93
2022-12-23T06:37:38.331Z,70.46
2022-12-23T06:38:40.580Z,71.14
2022-12-23T06:39:43.800Z,70.73
2022-12-23T06:40:46.482Z,71.17
2022-12-23T06:41:51.542Z,71.89
2022-12-23T06:42:53.848Z,71.96
2022-12-23T06:43:57.179Z,71.60
2022-12-23T06:44:59.535Z,72.22
2022-12-23T06:46:02.996Z,72.24
2022-12-23T06:47:05.450Z,72.46
2022-12-23T06:48:08.946Z,73.10
2022-12-23T06:49:13.625Z,72.59
2022-12-23T06:50:17.346Z,73.07
2022-12-23T06:51:19.836Z,72.63
2022-12-23T06:52:23.931Z,72.18
2022-12-23T06:53:26.333Z,72.36
2022-12-23T06:54:29.643Z,72.15
2022-12-23T06:55:32.576Z,72.29
2022-12-23T06:56:36.107Z,72.95
2022-12-23T06:57:41.137Z,72.31
2022-12-23T06:58:43.534Z,72.20
2022-12-23T06:59:47.031Z,72.05
2022-12-23T07:00:49.652Z,72.19
2022-12-23T07:01:53.308Z,71.87
2022-12-23T07:02:56.021Z,71.64
2022-12-23T07:03:59.441Z,72.35
2022-12-23T07:05:01.867Z,72.23
2022-12-23T07:06:05.598Z,72.61
2022-12-23T07:07:08.041Z,72.30
2022-12-23T07:08:11.397Z,72.64
2022-12-23T07:09:13.640Z,73.00
2022-12-23T07:10:17.609Z,73.34
2022-12-23T07:11:21.025Z,72.64
2022-12-23T07:12:23.550Z,73.15
2022-12-23T07:13:28.661Z,73.22
2022-12-23T07:14:30.983Z,73.11
2022-12-23T07:15:34.553Z,72.76
2022-12-23T07:16:37.121Z,72.84
2022-12-23T07:17:40.470Z,72.50
2022-12-23T07:18:43.060Z,72.34
2022-12-23T07:19:46.432Z,72.10
2022-12-23T07:20:48.985Z,72.15
2022-12-23T07:21:52.624Z,71.79
2022-12-23T07:22:55.169Z,71.27
2022-12-23T07:23:58.522Z,70.94
2022-12-23T07:25:00.814Z,70.33
2022-12-23T07:26:04.547Z,70.41
2022-12-23T07:27:06.851Z,70.15
2022-12-23T07:28:10.262Z,70.01
2022-12-23T07:29:15.513Z,68.75
2022-12-23T07:30:18.077Z,68.28
2022-12-23T07:31:21.404Z,67.25
2022-12-23T07:32:23.867Z,67.16
2022-12-23T07:33:27.828Z,66.66
2022-12-23T07:34:30.191Z,66.38
2022-12-23T07:35:33.888Z,65.62
2022-12-23T07:36:37.340Z,65.19
2022-12-23T07:37:39.584Z,65.35
2022-12-23T07:38:43.334Z,65.05
2022-12-23T07:39:45.698Z,64.61
2022-12-23T07:40:50.400Z,64.36
2022-12-23T07:42:16.443Z,64.63
2022-12-23T07:43:16.518Z,64.57
2022-12-23T07:44:20.314Z,64.34
2022-12-23T07:45:23.996Z,64.45
2022-12-23T07:46:26.480Z,64.61
2022-12-23T07:47:29.891Z,65.03
2022-12-23T07:48:32.331Z,65.21
2022-12-23T07:49:36.132Z,64.39
2022-12-23T07:50:39.396Z,64.60
2022-12-23T07:51:42.705Z,64.31
2022-12-23T07:52:44.958Z,64.24
2022-12-23T07:53:51.164Z,64.41
2022-12-23T07:54:53.650Z,64.51
2022-12-23T07:55:57.204Z,64.77
2022-12-23T07:56:59.636Z,64.25
2022-12-23T07:58:03.034Z,64.30
2022-12-23T07:59:05.363Z,64.48
2022-12-23T08:00:13.007Z,64.18
2022-12-23T08:01:15.901Z,63.94
2022-12-23T08:02:19.490Z,63.71
2022-12-23T08:03:22.150Z,63.77
2022-12-23T08:04:25.877Z,63.75
2022-12-23T08:05:28.304Z,63.89
2022-12-23T08:06:32.545Z,63.52
2022-12-23T08:07:35.105Z,65.41
2022-12-23T08:08:39.354Z,64.92
2022-12-23T08:09:41.724Z,64.46
2022-12-23T08:10:48.447Z,64.18
2022-12-23T08:11:52.316Z,64.18
2022-12-23T08:12:55.172Z,64.79
2022-12-23T08:13:58.876Z,65.24
2022-12-23T08:15:01.526Z,65.40
2022-12-23T08:16:07.923Z,65.46
2022-12-23T08:17:11.269Z,66.54
2022-12-23T08:18:13.889Z,67.53
2022-12-23T08:19:17.401Z,67.19
2022-12-23T08:20:19.895Z,67.59
2022-12-23T08:21:24.210Z,67.87
2022-12-23T08:22:26.780Z,68.01
2022-12-23T08:23:32.040Z,68.46
2022-12-23T08:24:34.397Z,68.35
2022-12-23T08:25:37.861Z,68.61
2022-12-23T08:26:40.209Z,68.42
2022-12-23T08:27:43.939Z,68.39
2022-12-23T08:28:47.646Z,68.17
2022-12-23T08:29:51.090Z,68.57
2022-12-23T08:30:53.693Z,68.61
2022-12-23T08:31:58.643Z,68.68
2022-12-23T08:33:01.002Z,68.58
2022-12-23T08:34:04.379Z,68.28
2022-12-23T08:35:08.147Z,68.29
2022-12-23T08:36:22.202Z,67.73
2022-12-23T08:37:26.750Z,67.24
2022-12-23T08:38:29.747Z,66.25
2022-12-23T08:39:33.508Z,65.16
2022-12-23T08:40:35.981Z,65.22
2022-12-23T08:41:41.931Z,65.93
2022-12-23T08:42:44.458Z,64.73
2022-12-23T08:43:48.255Z,64.74
2022-12-23T08:44:52.176Z,64.08
2022-12-23T08:45:56.114Z,62.46
2022-12-23T08:47:01.186Z,62.15
2022-12-23T08:48:03.965Z,61.63
2022-12-23T08:49:08.600Z,60.40
2022-12-23T08:50:12.201Z,59.48
2022-12-23T08:51:17.312Z,58.32
2022-12-23T08:52:20.708Z,58.38
2022-12-23T08:53:23.404Z,57.40
2022-12-23T08:54:27.179Z,58.74
2022-12-23T08:55:29.609Z,57.57
2022-12-23T08:56:35.400Z,56.92
2022-12-23T08:57:38.672Z,57.23
2022-12-23T08:58:44.436Z,57.39
2022-12-23T08:59:48.488Z,57.85
2022-12-23T09:00:51.131Z,57.48
2022-12-23T09:01:54.640Z,57.66
2022-12-23T09:02:58.697Z,58.37
2022-12-23T09:04:03.911Z,59.25
2022-12-23T09:05:06.603Z,59.88
2022-12-23T09:06:12.667Z,61.42
2022-12-23T09:07:15.333Z,61.87
2022-12-23T09:08:18.757Z,62.10
2022-12-23T09:09:21.124Z,62.11
2022-12-23T09:10:24.574Z,62.37
2022-12-23T09:11:30.197Z,62.28
2022-12-23T09:12:32.574Z,63.19
2022-12-23T09:13:36.378Z,63.35
2022-12-23T09:14:40.163Z,63.36
2022-12-23T09:15:44.154Z,63.46
2022-12-23T09:16:50.952Z,63.29
2022-12-23T09:17:53.414Z,63.02
2022-12-23T09:18:58.307Z,63.16
2022-12-23T09:20:02.035Z,63.12
2022-12-23T09:21:07.728Z,63.58
2022-12-23T09:22:11.345Z,63.95
2022-12-23T09:23:14.730Z,64.13
2022-12-23T09:24:18.109Z,64.26
2022-12-23T09:25:20.437Z,64.23
2022-12-23T09:26:26.170Z,64.91
2022-12-23T09:27:28.397Z,64.32
2022-12-23T09:28:31.981Z,64.33
2022-12-23T09:29:35.393Z,64.74
2022-12-23T09:30:37.777Z,65.16
2022-12-23T09:31:41.462Z,65.74
2022-12-23T09:32:43.867Z,66.02
2022-12-23T09:33:49.547Z,65.64
2022-12-23T09:34:53.448Z,65.90
2022-12-23T09:36:01.281Z,65.89
2022-12-23T09:37:04.887Z,65.75
2022-12-23T09:38:07.304Z,65.34
2022-12-23T09:39:11.783Z,65.03
2022-12-23T09:40:16.683Z,65.46
2022-12-23T09:41:35.384Z,66.22
2022-12-23T09:42:50.381Z,66.83
2022-12-23T09:44:01.411Z,66.57
2022-12-23T09:45:16.830Z,65.75
2022-12-23T09:46:21.900Z,67.03
2022-12-23T09:47:28.124Z,66.40
2022-12-23T09:48:38.966Z,65.10
2022-12-23T09:49:48.047Z,64.92
2022-12-23T09:50:52.056Z,64.75
2022-12-23T09:52:01.373Z,63.80
2022-12-23T09:53:07.690Z,63.69
2022-12-23T09:54:17.742Z,63.34
2022-12-23T09:55:25.034Z,63.08
2022-12-23T09:56:37.646Z,63.17
2022-12-23T09:57:49.042Z,64.06
2022-12-23T09:58:58.551Z,64.93
2022-12-23T10:00:07.555Z,65.78
2022-12-23T10:01:20.372Z,65.63
2022-12-23T10:02:34.811Z,66.12
2022-12-23T10:04:01.028Z,66.25
2022-12-23T10:05:13.104Z,66.75
2022-12-23T10:06:23.823Z,67.38
2022-12-23T10:07:33.387Z,67.78
2022-12-23T10:08:41.417Z,67.68
2022-12-23T10:09:47.735Z,66.59
2022-12-23T10:10:55.328Z,65.74
2022-12-23T10:11:58.342Z,64.84
2022-12-23T10:13:06.194Z,64.35
2022-12-23T10:14:18.318Z,63.42
2022-12-23T10:15:27.293Z,63.65
2022-12-23T10:16:34.279Z,62.92
2022-12-23T10:17:41.834Z,62.95
2022-12-23T10:18:53.535Z,62.59
2022-12-23T10:20:00.461Z,62.20
2022-12-23T10:21:08.789Z,61.13
2022-12-23T10:22:17.081Z,62.02
2022-12-23T10:23:30.541Z,62.07
2022-12-23T10:24:36.492Z,61.18
2022-12-23T10:25:47.773Z,60.32
2022-12-23T10:26:55.229Z,60.79
2022-12-23T10:27:57.641Z,59.33
2022-12-23T10:29:07.299Z,59.50
2022-12-23T10:30:42.606Z,59.41
2022-12-23T10:31:54.290Z,58.26
2022-12-23T10:33:04.239Z,57.14
2022-12-23T10:34:17.457Z,56.61
2022-12-23T10:35:34.914Z,56.74
2022-12-23T10:36:44.372Z,56.29
2022-12-23T10:37:54.967Z,56.87
2022-12-23T10:39:04.194Z,57.56
2022-12-23T10:40:17.480Z,57.86
2022-12-23T10:41:35.854Z,59.13
2022-12-23T10:42:43.930Z,59.28
2022-12-23T10:44:07.867Z,58.35
2022-12-23T10:45:22.858Z,57.91
2022-12-23T10:46:34.858Z,58.92
2022-12-23T10:47:49.438Z,59.26
2022-12-23T10:49:01.540Z,59.99
2022-12-23T10:50:18.960Z,60.63
2022-12-23T10:51:26.716Z,59.35
2022-12-23T10:52:33.896Z,55.13
2022-12-23T10:53:44.449Z,58.73
2022-12-23T10:54:48.287Z,58.99
2022-12-23T10:55:52.172Z,58.61
2022-12-23T10:56:55.091Z,58.66
2022-12-23T10:58:06.383Z,58.05
2022-12-23T10:59:15.445Z,57.23
2022-12-23T11:00:22.694Z,57.42
2022-12-23T11:01:27.727Z,57.51
2022-12-23T11:02:46.644Z,56.64
2022-12-23T11:03:58.024Z,56.83
2022-12-23T11:05:01.373Z,57.19
2022-12-23T11:06:06.770Z,56.84
2022-12-23T11:07:42.670Z,57.63
2022-12-23T11:08:39.319Z,57.18
2022-12-23T11:09:44.637Z,57.87
2022-12-23T11:10:48.625Z,56.85
2022-12-23T11:12:00.455Z,57.87
2022-12-23T11:13:04.179Z,57.21
2022-12-23T11:14:07.646Z,56.58
2022-12-23T11:15:26.901Z,57.73
2022-12-23T11:16:30.831Z,57.63
2022-12-23T11:17:35.256Z,56.97
2022-12-23T11:18:42.032Z,56.32
2022-12-23T11:19:45.107Z,56.33
2022-12-23T11:21:05.140Z,55.32
2022-12-23T11:22:23.711Z,55.06
2022-12-23T11:23:29.402Z,54.57
2022-12-23T11:24:41.259Z,54.35
2022-12-23T11:25:47.769Z,54.47
2022-12-23T11:27:00.295Z,54.25
2022-12-23T11:28:06.594Z,53.83
2022-12-23T11:29:16.005Z,53.90
2022-12-23T11:30:19.263Z,52.98
2022-12-23T11:31:28.852Z,52.07
2022-12-23T11:32:31.431Z,53.26
2022-12-23T11:33:37.918Z,52.17
2022-12-23T11:34:48.869Z,53.29
2022-12-23T11:36:00.994Z,52.24
2022-12-23T11:37:07.577Z,49.53
2022-12-23T11:38:15.749Z,50.23
2022-12-23T11:39:25.916Z,51.30
2022-12-23T11:40:33.966Z,53.62
2022-12-23T11:41:39.281Z,52.90
2022-12-23T11:42:44.044Z,52.64
2022-12-23T11:43:52.684Z,50.42
2022-12-23T11:45:01.114Z,48.69
2022-12-23T11:46:25.496Z,46.22
2022-12-23T11:47:37.355Z,44.59
2022-12-23T11:48:39.753Z,44.64
2022-12-23T11:49:50.105Z,44.31
2022-12-23T11:51:01.071Z,45.36
2022-12-23T11:52:13.169Z,42.72
2022-12-23T11:53:22.522Z,41.94
2022-12-23T11:54:24.858Z,42.91
2022-12-23T11:55:32.944Z,41.78
2022-12-23T11:56:40.527Z,41.62
2022-12-23T11:57:48.051Z,41.74
2022-12-23T11:58:54.965Z,40.81
2022-12-23T12:00:01.768Z,40.46
2022-12-23T12:01:16.228Z,39.04
2022-12-23T12:02:22.200Z,39.80
2022-12-23T12:03:29.848Z,39.04
2022-12-23T12:04:36.097Z,40.79
2022-12-23T12:05:42.053Z,41.36
2022-12-23T12:06:49.777Z,42.19
2022-12-23T12:08:01.013Z,41.90
2022-12-23T12:09:06.919Z,42.17
2022-12-23T12:10:19.223Z,41.07
2022-12-23T12:11:28.550Z,40.54
2022-12-23T12:12:31.162Z,41.02
2022-12-23T12:13:39.604Z,41.31
2022-12-23T12:14:44.377Z,40.95
2022-12-23T12:15:59.284Z,40.71
2022-12-23T12:17:08.853Z,41.63
2022-12-23T12:18:16.046Z,42.46
2022-12-23T12:19:24.968Z,42.09
2022-12-23T12:20:32.792Z,41.76
2022-12-23T12:21:39.152Z,41.60
2022-12-23T12:22:49.398Z,41.17
2022-12-23T12:24:14.713Z,41.14
2022-12-23T12:25:23.630Z,41.30
2022-12-23T12:26:30.443Z,40.73
2022-12-23T12:27:39.538Z,40.17
2022-12-23T12:28:44.533Z,39.82
2022-12-23T12:29:53.886Z,40.70
2022-12-23T12:31:03.543Z,41.14
2022-12-23T12:32:15.888Z,41.48
2022-12-23T12:33:24.878Z,41.23
2022-12-23T12:34:43.878Z,41.64
2022-12-23T12:35:53.598Z,41.38
2022-12-23T12:37:03.327Z,41.84
2022-12-23T12:38:17.227Z,41.98
2022-12-23T12:39:26.335Z,42.49
2022-12-23T12:40:37.658Z,42.65
2022-12-23T12:41:50.389Z,41.99
2022-12-23T12:43:00.112Z,42.29
2022-12-23T12:44:11.211Z,42.85
2022-12-23T12:45:20.131Z,42.97
2022-12-23T12:46:32.078Z,41.98
2022-12-23T12:47:54.191Z,42.16
2022-12-23T12:49:05.530Z,41.85
2022-12-23T12:50:14.436Z,42.06
2022-12-23T12:51:25.950Z,41.98
2022-12-23T12:52:34.157Z,41.77
2022-12-23T12:53:43.155Z,41.67
2022-12-23T12:54:53.384Z,41.73
2022-12-23T12:56:00.736Z,42.23
2022-12-23T12:57:05.912Z,43.46
2022-12-23T12:58:16.056Z,45.04
2022-12-23T12:59:21.384Z,45.56
2022-12-23T13:00:25.285Z,46.06
2022-12-23T13:01:44.428Z,46.32
2022-12-23T13:03:12.813Z,46.83
2022-12-23T13:04:42.137Z,47.03
2022-12-23T13:06:05.060Z,46.97
2022-12-23T13:07:20.472Z,46.67
2022-12-23T13:08:40.279Z,47.31
2022-12-23T13:09:57.757Z,47.17
2022-12-23T13:11:07.501Z,46.65
2022-12-23T13:12:20.921Z,46.75
2022-12-23T13:13:33.703Z,46.90
2022-12-23T13:14:51.823Z,47.73
2022-12-23T13:16:00.254Z,47.72
2022-12-23T13:17:09.976Z,47.33
2022-12-23T13:18:27.657Z,47.38
2022-12-23T13:19:38.337Z,47.04
2022-12-23T13:20:46.421Z,46.86
2022-12-23T13:21:56.185Z,47.22
2022-12-23T13:23:21.065Z,47.54
2022-12-23T13:24:34.055Z,47.10
2022-12-23T13:25:42.732Z,45.01
2022-12-23T13:26:59.158Z,45.88
2022-12-23T13:28:16.790Z,45.08
2022-12-23T13:29:54.570Z,45.94
2022-12-23T13:31:08.535Z,44.54
2022-12-23T13:32:23.240Z,44.82
2022-12-23T13:33:33.626Z,44.46
2022-12-23T13:34:46.707Z,44.13
2022-12-23T13:36:11.421Z,43.36
2022-12-23T13:37:25.801Z,42.30
2022-12-23T13:38:45.213Z,41.54
2022-12-23T13:39:58.430Z,41.76
2022-12-23T13:41:06.798Z,41.16
2022-12-23T13:42:17.472Z,41.36
2022-12-23T13:43:24.616Z,41.30
2022-12-23T13:44:28.379Z,40.71
2022-12-23T13:45:35.901Z,40.69
2022-12-23T13:46:49.272Z,41.26
2022-12-23T13:48:08.079Z,40.90
2022-12-23T13:49:17.183Z,41.07
2022-12-23T13:50:27.885Z,40.80
2022-12-23T13:51:38.212Z,41.00
2022-12-23T13:53:00.545Z,40.89
2022-12-23T13:54:11.623Z,41.27
2022-12-23T13:56:28.123Z,40.89
2022-12-23T13:57:45.871Z,40.68
2022-12-23T13:58:51.597Z,40.35
2022-12-23T14:00:05.921Z,40.74
2022-12-23T14:01:33.731Z,39.91
2022-12-23T14:02:54.028Z,40.01
2022-12-23T14:03:56.343Z,40.17
2022-12-23T14:05:00.726Z,40.35
2022-12-23T14:06:23.097Z,40.53
2022-12-23T14:07:28.653Z,40.11
2022-12-23T14:08:42.205Z,39.36
2022-12-23T14:09:51.167Z,39.71
2022-12-23T14:10:57.434Z,39.30
2022-12-23T14:12:19.952Z,39.45
2022-12-23T14:13:26.393Z,39.18
2022-12-23T14:14:31.753Z,38.61
2022-12-23T14:16:10.728Z,38.09
2022-12-23T14:17:21.728Z,38.40
2022-12-23T14:18:43.258Z,38.13
2022-12-23T14:20:15.074Z,38.65
2022-12-23T14:21:27.690Z,38.98
2022-12-23T14:22:50.614Z,38.72
2022-12-23T14:24:04.954Z,39.58
2022-12-23T14:25:33.111Z,39.72
2022-12-23T14:26:57.451Z,39.91
2022-12-23T14:28:08.744Z,39.92
2022-12-23T14:29:28.507Z,40.06
2022-12-23T14:30:37.459Z,41.13
2022-12-23T14:31:42.613Z,40.35